This is the latest recevied weather packets stored in our database for station/object K4CRS-13. If no packets are shown the sender has not sent any weather packets the latest 10 day(s).
| Time | Temp. | Humidity | Pressure | Rain* | Wind** | Luminosity | Snow |
|---|---|---|---|---|---|---|---|
| 1787455039 | 20.56° C | 99% | 1050.9 hPa | 0 mm | - | 0 W/m² | - |
| 1787454735 | 20.56° C | 99% | 1051.2 hPa | 0 mm | - | 0 W/m² | - |
| 1787454431 | 20.56° C | 99% | 1050.9 hPa | 0 mm | - | 0 W/m² | - |
| 1787454126 | 20.56° C | 99% | 1051.2 hPa | 0 mm | - | 0 W/m² | - |
| 1787453821 | 20.56° C | 99% | 1051.1 hPa | 0 mm | - | 0 W/m² | - |
| 1787453516 | 20.56° C | 99% | 1051.3 hPa | 0 mm | - | 0 W/m² | - |
| 1787453216 | 20.56° C | 99% | 1051.1 hPa | 0 mm | - | 0 W/m² | - |
| 1787452911 | 20.56° C | 99% | 1051.1 hPa | 0 mm | - | 0 W/m² | - |
| 1787452610 | 20.56° C | 99% | 1050.8 hPa | 0 mm | - | 0 W/m² | - |
| 1787452305 | 20.56° C | 98% | 1051 hPa | 0 mm | - | 0 W/m² | - |
| 1787452002 | 21.11° C | 98% | 1051.2 hPa | 0 mm | - | 0 W/m² | - |
| 1787451701 | 21.11° C | 98% | 1051.8 hPa | 1.27 mm | - | 0 W/m² | - |
| 1787451400 | 20.56° C | 98% | 1052.1 hPa | 1.27 mm | - | 0 W/m² | - |
| 1787451096 | 21.11° C | 98% | 1052.4 hPa | 1.78 mm | - | 0 W/m² | - |
| 1787450791 | 21.11° C | 98% | 1052.2 hPa | 3.05 mm | - | 0 W/m² | - |
| 1787450487 | 21.11° C | 98% | 1051.8 hPa | 3.05 mm | - | 0 W/m² | - |
| 1787450182 | 21.11° C | 97% | 1052.3 hPa | 3.05 mm | - | 0 W/m² | - |
| 1787449878 | 21.11° C | 97% | 1052.5 hPa | 1.27 mm | - | 0 W/m² | - |
| 1787449573 | 21.11° C | 97% | 1052 hPa | 0 mm | - | 0 W/m² | - |
| 1787449268 | 20.56° C | 97% | 1051.6 hPa | 0 mm | - | 0 W/m² | - |
| 1787448963 | 20.56° C | 96% | 1052.1 hPa | 1.78 mm | - | 0 W/m² | - |
| 1787448658 | 21.11° C | 96% | 1052.5 hPa | 10.67 mm | - | 0 W/m² | - |
| 1787448355 | 21.11° C | 96% | 1052.9 hPa | 31.75 mm | - | 0 W/m² | - |
| 1787448050 | 21.67° C | 95% | 1053.7 hPa | 48.51 mm | - | 0 W/m² | - |
| 1787447749 | 22.22° C | 94% | 1053.1 hPa | 27.69 mm | - | 0 W/m² | - |
* Rain latest hour (hover to see other rain measurements)
** Current wind speed in m/s (hover to see current wind gust speed)